sensor_id;sensor_type;location;lat;lon;timestamp;P1;durP1;ratioP1;P2;durP2;ratioP2
20324;SDS011;10320;49.482;11.256;2024-02-26T00:02:06;4.63;;;3.40;;
20324;SDS011;10320;49.482;11.256;2024-02-26T00:04:32;4.03;;;2.93;;
20324;SDS011;10320;49.482;11.256;2024-02-26T00:06:58;4.83;;;3.60;;
20324;SDS011;10320;49.482;11.256;2024-02-26T00:09:24;4.50;;;3.60;;
20324;SDS011;10320;49.482;11.256;2024-02-26T00:11:50;5.50;;;3.83;;
20324;SDS011;10320;49.482;11.256;2024-02-26T00:14:16;5.70;;;3.67;;
20324;SDS011;10320;49.482;11.256;2024-02-26T00:16:42;4.13;;;3.33;;
20324;SDS011;10320;49.482;11.256;2024-02-26T00:19:10;5.23;;;3.60;;
20324;SDS011;10320;49.482;11.256;2024-02-26T00:21:39;3.97;;;3.17;;
20324;SDS011;10320;49.482;11.256;2024-02-26T00:24:06;4.73;;;3.43;;
20324;SDS011;10320;49.482;11.256;2024-02-26T00:26:32;5.53;;;3.50;;
20324;SDS011;10320;49.482;11.256;2024-02-26T00:28:58;4.23;;;3.67;;
20324;SDS011;10320;49.482;11.256;2024-02-26T00:31:24;5.30;;;3.63;;
20324;SDS011;10320;49.482;11.256;2024-02-26T00:33:50;4.63;;;3.47;;
20324;SDS011;10320;49.482;11.256;2024-02-26T00:36:16;4.30;;;3.53;;
20324;SDS011;10320;49.482;11.256;2024-02-26T00:38:43;6.30;;;4.30;;
20324;SDS011;10320;49.482;11.256;2024-02-26T00:41:11;4.27;;;3.57;;
20324;SDS011;10320;49.482;11.256;2024-02-26T00:43:37;5.83;;;4.23;;
20324;SDS011;10320;49.482;11.256;2024-02-26T00:46:05;4.57;;;3.67;;
20324;SDS011;10320;49.482;11.256;2024-02-26T00:48:31;9.87;;;4.33;;
20324;SDS011;10320;49.482;11.256;2024-02-26T00:50:57;4.77;;;3.80;;
20324;SDS011;10320;49.482;11.256;2024-02-26T00:53:23;5.90;;;4.40;;
20324;SDS011;10320;49.482;11.256;2024-02-26T00:55:50;5.87;;;4.50;;
20324;SDS011;10320;49.482;11.256;2024-02-26T00:58:16;6.47;;;4.47;;
20324;SDS011;10320;49.482;11.256;2024-02-26T01:00:42;5.80;;;4.23;;
20324;SDS011;10320;49.482;11.256;2024-02-26T01:03:08;7.40;;;5.40;;
20324;SDS011;10320;49.482;11.256;2024-02-26T01:05:35;7.03;;;5.47;;
20324;SDS011;10320;49.482;11.256;2024-02-26T01:08:03;7.53;;;6.03;;
20324;SDS011;10320;49.482;11.256;2024-02-26T01:10:29;7.07;;;5.80;;
20324;SDS011;10320;49.482;11.256;2024-02-26T01:12:56;8.83;;;6.33;;
20324;SDS011;10320;49.482;11.256;2024-02-26T01:15:22;9.80;;;5.93;;
20324;SDS011;10320;49.482;11.256;2024-02-26T01:17:49;9.40;;;6.00;;
20324;SDS011;10320;49.482;11.256;2024-02-26T01:20:16;8.93;;;5.83;;
20324;SDS011;10320;49.482;11.256;2024-02-26T01:22:42;6.47;;;5.07;;
20324;SDS011;10320;49.482;11.256;2024-02-26T01:25:08;7.70;;;5.40;;
20324;SDS011;10320;49.482;11.256;2024-02-26T01:27:35;7.97;;;5.53;;
20324;SDS011;10320;49.482;11.256;2024-02-26T01:30:02;7.87;;;5.43;;
20324;SDS011;10320;49.482;11.256;2024-02-26T01:32:28;8.40;;;5.40;;
20324;SDS011;10320;49.482;11.256;2024-02-26T01:34:55;6.43;;;5.27;;
20324;SDS011;10320;49.482;11.256;2024-02-26T01:37:21;6.87;;;5.20;;
20324;SDS011;10320;49.482;11.256;2024-02-26T01:39:47;7.10;;;4.53;;
20324;SDS011;10320;49.482;11.256;2024-02-26T01:42:13;6.00;;;4.73;;
20324;SDS011;10320;49.482;11.256;2024-02-26T01:44:39;5.97;;;4.47;;
20324;SDS011;10320;49.482;11.256;2024-02-26T01:47:05;6.57;;;4.43;;
20324;SDS011;10320;49.482;11.256;2024-02-26T01:49:33;7.77;;;5.20;;
20324;SDS011;10320;49.482;11.256;2024-02-26T01:52:00;5.27;;;4.23;;
20324;SDS011;10320;49.482;11.256;2024-02-26T01:54:27;6.80;;;4.70;;
20324;SDS011;10320;49.482;11.256;2024-02-26T01:56:53;7.03;;;4.57;;
20324;SDS011;10320;49.482;11.256;2024-02-26T01:59:19;6.63;;;4.80;;
20324;SDS011;10320;49.482;11.256;2024-02-26T02:01:47;5.83;;;4.43;;
20324;SDS011;10320;49.482;11.256;2024-02-26T02:04:13;6.20;;;4.60;;
20324;SDS011;10320;49.482;11.256;2024-02-26T02:06:40;8.93;;;4.43;;
20324;SDS011;10320;49.482;11.256;2024-02-26T02:09:08;6.13;;;4.57;;
20324;SDS011;10320;49.482;11.256;2024-02-26T02:11:34;8.10;;;4.70;;
20324;SDS011;10320;49.482;11.256;2024-02-26T02:14:00;9.63;;;5.97;;
20324;SDS011;10320;49.482;11.256;2024-02-26T02:16:26;10.33;;;6.93;;
20324;SDS011;10320;49.482;11.256;2024-02-26T02:18:52;7.67;;;5.40;;
20324;SDS011;10320;49.482;11.256;2024-02-26T02:21:18;8.67;;;6.67;;
20324;SDS011;10320;49.482;11.256;2024-02-26T02:23:44;6.43;;;5.00;;
20324;SDS011;10320;49.482;11.256;2024-02-26T02:26:11;6.03;;;4.47;;
20324;SDS011;10320;49.482;11.256;2024-02-26T02:28:38;7.00;;;4.90;;
20324;SDS011;10320;49.482;11.256;2024-02-26T02:31:05;6.47;;;4.43;;
20324;SDS011;10320;49.482;11.256;2024-02-26T02:33:31;8.23;;;4.47;;
20324;SDS011;10320;49.482;11.256;2024-02-26T02:35:57;6.23;;;4.50;;
20324;SDS011;10320;49.482;11.256;2024-02-26T02:38:23;6.83;;;4.73;;
20324;SDS011;10320;49.482;11.256;2024-02-26T02:40:51;8.10;;;4.90;;
20324;SDS011;10320;49.482;11.256;2024-02-26T02:43:17;7.77;;;5.27;;
20324;SDS011;10320;49.482;11.256;2024-02-26T02:45:43;9.47;;;4.93;;
20324;SDS011;10320;49.482;11.256;2024-02-26T02:48:10;6.60;;;5.03;;
20324;SDS011;10320;49.482;11.256;2024-02-26T02:50:36;8.53;;;5.53;;
20324;SDS011;10320;49.482;11.256;2024-02-26T02:53:02;7.27;;;5.23;;
20324;SDS011;10320;49.482;11.256;2024-02-26T02:55:28;10.17;;;6.23;;
20324;SDS011;10320;49.482;11.256;2024-02-26T02:57:54;8.83;;;6.00;;
20324;SDS011;10320;49.482;11.256;2024-02-26T03:00:20;8.43;;;5.57;;
20324;SDS011;10320;49.482;11.256;2024-02-26T03:02:49;11.00;;;6.67;;
20324;SDS011;10320;49.482;11.256;2024-02-26T03:05:15;9.90;;;6.70;;
20324;SDS011;10320;49.482;11.256;2024-02-26T03:07:41;10.50;;;7.10;;
20324;SDS011;10320;49.482;11.256;2024-02-26T03:10:07;8.83;;;6.37;;
20324;SDS011;10320;49.482;11.256;2024-02-26T03:12:33;8.60;;;5.87;;
20324;SDS011;10320;49.482;11.256;2024-02-26T03:15:00;9.70;;;6.30;;
20324;SDS011;10320;49.482;11.256;2024-02-26T03:17:29;9.67;;;6.17;;
20324;SDS011;10320;49.482;11.256;2024-02-26T03:19:55;9.03;;;6.47;;
20324;SDS011;10320;49.482;11.256;2024-02-26T03:22:21;8.90;;;6.27;;
20324;SDS011;10320;49.482;11.256;2024-02-26T03:24:47;10.63;;;6.67;;
20324;SDS011;10320;49.482;11.256;2024-02-26T03:27:14;7.87;;;5.97;;
20324;SDS011;10320;49.482;11.256;2024-02-26T03:29:40;9.47;;;6.00;;
20324;SDS011;10320;49.482;11.256;2024-02-26T03:32:06;8.97;;;5.77;;
20324;SDS011;10320;49.482;11.256;2024-02-26T03:34:32;8.33;;;5.90;;
20324;SDS011;10320;49.482;11.256;2024-02-26T03:37:04;6.23;;;5.00;;
20324;SDS011;10320;49.482;11.256;2024-02-26T03:39:30;6.27;;;5.30;;
20324;SDS011;10320;49.482;11.256;2024-02-26T03:41:56;7.67;;;4.93;;
20324;SDS011;10320;49.482;11.256;2024-02-26T03:44:22;9.00;;;5.23;;
20324;SDS011;10320;49.482;11.256;2024-02-26T03:46:50;9.23;;;5.00;;
20324;SDS011;10320;49.482;11.256;2024-02-26T03:49:16;6.77;;;5.03;;
20324;SDS011;10320;49.482;11.256;2024-02-26T03:51:42;6.03;;;5.07;;
20324;SDS011;10320;49.482;11.256;2024-02-26T03:54:08;5.37;;;4.20;;
20324;SDS011;10320;49.482;11.256;2024-02-26T03:56:35;5.63;;;4.30;;
20324;SDS011;10320;49.482;11.256;2024-02-26T03:59:01;6.17;;;4.43;;
20324;SDS011;10320;49.482;11.256;2024-02-26T04:01:27;5.43;;;4.10;;
20324;SDS011;10320;49.482;11.256;2024-02-26T04:03:54;6.53;;;4.67;;
20324;SDS011;10320;49.482;11.256;2024-02-26T04:06:20;5.47;;;4.20;;
20324;SDS011;10320;49.482;11.256;2024-02-26T04:08:47;5.10;;;4.07;;
20324;SDS011;10320;49.482;11.256;2024-02-26T04:11:13;5.93;;;3.87;;
20324;SDS011;10320;49.482;11.256;2024-02-26T04:13:43;5.17;;;3.33;;
20324;SDS011;10320;49.482;11.256;2024-02-26T04:16:11;4.97;;;3.40;;
20324;SDS011;10320;49.482;11.256;2024-02-26T04:18:37;5.37;;;3.73;;
20324;SDS011;10320;49.482;11.256;2024-02-26T04:21:04;3.77;;;3.37;;
20324;SDS011;10320;49.482;11.256;2024-02-26T04:23:32;4.93;;;3.37;;
20324;SDS011;10320;49.482;11.256;2024-02-26T04:25:58;4.43;;;3.50;;
20324;SDS011;10320;49.482;11.256;2024-02-26T04:28:24;3.87;;;3.13;;
20324;SDS011;10320;49.482;11.256;2024-02-26T04:30:51;5.30;;;3.53;;
20324;SDS011;10320;49.482;11.256;2024-02-26T04:33:17;4.90;;;3.47;;
20324;SDS011;10320;49.482;11.256;2024-02-26T04:35:43;5.63;;;3.67;;
20324;SDS011;10320;49.482;11.256;2024-02-26T04:38:09;4.83;;;3.53;;
20324;SDS011;10320;49.482;11.256;2024-02-26T04:40:35;6.40;;;3.63;;
20324;SDS011;10320;49.482;11.256;2024-02-26T04:43:01;4.73;;;3.53;;
20324;SDS011;10320;49.482;11.256;2024-02-26T04:45:27;4.07;;;2.80;;
20324;SDS011;10320;49.482;11.256;2024-02-26T04:47:53;4.73;;;3.30;;
20324;SDS011;10320;49.482;11.256;2024-02-26T04:50:20;4.03;;;3.57;;
20324;SDS011;10320;49.482;11.256;2024-02-26T04:52:46;4.43;;;3.10;;
20324;SDS011;10320;49.482;11.256;2024-02-26T04:55:12;4.03;;;3.27;;
20324;SDS011;10320;49.482;11.256;2024-02-26T04:57:38;3.60;;;2.93;;
20324;SDS011;10320;49.482;11.256;2024-02-26T05:00:04;3.83;;;3.20;;
20324;SDS011;10320;49.482;11.256;2024-02-26T05:02:31;5.10;;;3.40;;
20324;SDS011;10320;49.482;11.256;2024-02-26T05:04:58;4.80;;;3.47;;
20324;SDS011;10320;49.482;11.256;2024-02-26T05:07:24;4.00;;;3.30;;
20324;SDS011;10320;49.482;11.256;2024-02-26T05:09:50;4.47;;;3.30;;
20324;SDS011;10320;49.482;11.256;2024-02-26T05:12:17;3.90;;;3.17;;
20324;SDS011;10320;49.482;11.256;2024-02-26T05:14:43;5.80;;;3.10;;
20324;SDS011;10320;49.482;11.256;2024-02-26T05:17:09;3.83;;;3.33;;
20324;SDS011;10320;49.482;11.256;2024-02-26T05:19:35;4.43;;;3.43;;
20324;SDS011;10320;49.482;11.256;2024-02-26T05:22:00;5.17;;;3.33;;
20324;SDS011;10320;49.482;11.256;2024-02-26T05:24:26;5.73;;;3.50;;
20324;SDS011;10320;49.482;11.256;2024-02-26T05:26:53;4.87;;;3.80;;
20324;SDS011;10320;49.482;11.256;2024-02-26T05:29:20;5.80;;;3.90;;
20324;SDS011;10320;49.482;11.256;2024-02-26T05:31:46;5.77;;;3.47;;
20324;SDS011;10320;49.482;11.256;2024-02-26T05:34:12;4.50;;;3.73;;
20324;SDS011;10320;49.482;11.256;2024-02-26T05:36:38;4.27;;;3.43;;
20324;SDS011;10320;49.482;11.256;2024-02-26T05:39:04;5.27;;;3.80;;
20324;SDS011;10320;49.482;11.256;2024-02-26T05:41:30;4.13;;;3.70;;
20324;SDS011;10320;49.482;11.256;2024-02-26T05:43:56;4.70;;;3.63;;
20324;SDS011;10320;49.482;11.256;2024-02-26T05:46:22;4.70;;;4.00;;
20324;SDS011;10320;49.482;11.256;2024-02-26T05:48:50;5.47;;;3.87;;
20324;SDS011;10320;49.482;11.256;2024-02-26T05:51:17;4.67;;;3.70;;
20324;SDS011;10320;49.482;11.256;2024-02-26T05:53:43;4.70;;;3.93;;
20324;SDS011;10320;49.482;11.256;2024-02-26T05:56:09;5.07;;;4.10;;
20324;SDS011;10320;49.482;11.256;2024-02-26T05:58:35;5.63;;;4.23;;
20324;SDS011;10320;49.482;11.256;2024-02-26T06:01:01;5.50;;;4.80;;
20324;SDS011;10320;49.482;11.256;2024-02-26T06:03:27;6.20;;;4.37;;
20324;SDS011;10320;49.482;11.256;2024-02-26T06:05:53;5.73;;;4.33;;
20324;SDS011;10320;49.482;11.256;2024-02-26T06:08:19;5.80;;;4.30;;
20324;SDS011;10320;49.482;11.256;2024-02-26T06:10:45;5.93;;;4.30;;
20324;SDS011;10320;49.482;11.256;2024-02-26T06:13:11;5.30;;;4.23;;
20324;SDS011;10320;49.482;11.256;2024-02-26T06:15:37;7.80;;;4.80;;
20324;SDS011;10320;49.482;11.256;2024-02-26T06:18:03;5.20;;;4.30;;
20324;SDS011;10320;49.482;11.256;2024-02-26T06:20:29;6.57;;;4.80;;
20324;SDS011;10320;49.482;11.256;2024-02-26T06:22:55;5.53;;;4.50;;
20324;SDS011;10320;49.482;11.256;2024-02-26T06:25:21;5.50;;;4.30;;
20324;SDS011;10320;49.482;11.256;2024-02-26T06:27:47;5.83;;;3.73;;
20324;SDS011;10320;49.482;11.256;2024-02-26T06:30:13;5.00;;;4.37;;
20324;SDS011;10320;49.482;11.256;2024-02-26T06:32:39;6.37;;;4.40;;
20324;SDS011;10320;49.482;11.256;2024-02-26T06:35:05;5.93;;;4.43;;
20324;SDS011;10320;49.482;11.256;2024-02-26T06:37:36;5.90;;;4.20;;
20324;SDS011;10320;49.482;11.256;2024-02-26T06:40:02;5.60;;;4.60;;
20324;SDS011;10320;49.482;11.256;2024-02-26T06:42:29;5.67;;;4.50;;
20324;SDS011;10320;49.482;11.256;2024-02-26T06:44:55;5.03;;;4.40;;
20324;SDS011;10320;49.482;11.256;2024-02-26T06:47:21;5.73;;;4.67;;
20324;SDS011;10320;49.482;11.256;2024-02-26T06:49:47;6.07;;;4.30;;
20324;SDS011;10320;49.482;11.256;2024-02-26T06:52:13;7.23;;;4.73;;
20324;SDS011;10320;49.482;11.256;2024-02-26T06:54:39;6.23;;;4.87;;
20324;SDS011;10320;49.482;11.256;2024-02-26T06:57:05;5.60;;;4.37;;
20324;SDS011;10320;49.482;11.256;2024-02-26T06:59:31;6.57;;;4.77;;
20324;SDS011;10320;49.482;11.256;2024-02-26T07:01:57;5.53;;;4.63;;
20324;SDS011;10320;49.482;11.256;2024-02-26T07:04:23;6.80;;;4.57;;
20324;SDS011;10320;49.482;11.256;2024-02-26T07:06:49;5.50;;;4.70;;
20324;SDS011;10320;49.482;11.256;2024-02-26T07:09:15;5.20;;;4.67;;
20324;SDS011;10320;49.482;11.256;2024-02-26T07:11:41;5.07;;;4.57;;
20324;SDS011;10320;49.482;11.256;2024-02-26T07:14:11;5.87;;;4.77;;
20324;SDS011;10320;49.482;11.256;2024-02-26T07:16:37;5.30;;;4.40;;
20324;SDS011;10320;49.482;11.256;2024-02-26T07:19:03;5.20;;;4.70;;
20324;SDS011;10320;49.482;11.256;2024-02-26T07:21:30;5.27;;;4.50;;
20324;SDS011;10320;49.482;11.256;2024-02-26T07:23:56;6.67;;;5.23;;
20324;SDS011;10320;49.482;11.256;2024-02-26T07:26:22;5.70;;;4.93;;
20324;SDS011;10320;49.482;11.256;2024-02-26T07:28:51;6.53;;;4.87;;
20324;SDS011;10320;49.482;11.256;2024-02-26T07:31:17;5.70;;;4.60;;
20324;SDS011;10320;49.482;11.256;2024-02-26T07:33:43;7.37;;;5.13;;
20324;SDS011;10320;49.482;11.256;2024-02-26T07:36:09;7.07;;;5.10;;
20324;SDS011;10320;49.482;11.256;2024-02-26T07:38:35;6.33;;;5.00;;
20324;SDS011;10320;49.482;11.256;2024-02-26T07:41:01;6.47;;;4.97;;
20324;SDS011;10320;49.482;11.256;2024-02-26T07:43:27;7.07;;;5.27;;
20324;SDS011;10320;49.482;11.256;2024-02-26T07:45:53;6.77;;;4.87;;
20324;SDS011;10320;49.482;11.256;2024-02-26T07:48:19;5.93;;;5.00;;
20324;SDS011;10320;49.482;11.256;2024-02-26T07:50:45;5.90;;;5.00;;
20324;SDS011;10320;49.482;11.256;2024-02-26T07:53:11;5.67;;;4.73;;
20324;SDS011;10320;49.482;11.256;2024-02-26T07:55:37;7.57;;;5.17;;
20324;SDS011;10320;49.482;11.256;2024-02-26T07:58:03;6.00;;;5.20;;
20324;SDS011;10320;49.482;11.256;2024-02-26T08:00:29;6.23;;;5.27;;
20324;SDS011;10320;49.482;11.256;2024-02-26T08:02:55;8.10;;;6.37;;
20324;SDS011;10320;49.482;11.256;2024-02-26T08:05:21;7.00;;;5.30;;
20324;SDS011;10320;49.482;11.256;2024-02-26T08:07:47;6.20;;;5.10;;
20324;SDS011;10320;49.482;11.256;2024-02-26T08:10:14;8.63;;;5.33;;
20324;SDS011;10320;49.482;11.256;2024-02-26T08:12:40;6.83;;;5.23;;
20324;SDS011;10320;49.482;11.256;2024-02-26T08:15:06;5.80;;;4.63;;
20324;SDS011;10320;49.482;11.256;2024-02-26T08:17:32;6.43;;;5.37;;
20324;SDS011;10320;49.482;11.256;2024-02-26T08:19:59;6.00;;;4.97;;
20324;SDS011;10320;49.482;11.256;2024-02-26T08:22:25;6.40;;;5.20;;
20324;SDS011;10320;49.482;11.256;2024-02-26T08:24:51;6.53;;;4.93;;
20324;SDS011;10320;49.482;11.256;2024-02-26T08:27:16;5.43;;;4.67;;
20324;SDS011;10320;49.482;11.256;2024-02-26T08:29:43;6.33;;;5.20;;
20324;SDS011;10320;49.482;11.256;2024-02-26T08:32:09;6.33;;;4.93;;
20324;SDS011;10320;49.482;11.256;2024-02-26T08:34:34;7.47;;;4.63;;
20324;SDS011;10320;49.482;11.256;2024-02-26T08:37:00;6.37;;;5.00;;
20324;SDS011;10320;49.482;11.256;2024-02-26T08:39:27;5.30;;;4.67;;
20324;SDS011;10320;49.482;11.256;2024-02-26T08:41:53;6.03;;;4.97;;
20324;SDS011;10320;49.482;11.256;2024-02-26T08:44:19;6.40;;;5.13;;
20324;SDS011;10320;49.482;11.256;2024-02-26T08:46:45;6.17;;;4.97;;
20324;SDS011;10320;49.482;11.256;2024-02-26T08:49:11;6.87;;;4.93;;
20324;SDS011;10320;49.482;11.256;2024-02-26T08:51:43;6.40;;;5.10;;
20324;SDS011;10320;49.482;11.256;2024-02-26T08:54:09;6.87;;;5.13;;
20324;SDS011;10320;49.482;11.256;2024-02-26T08:56:35;5.63;;;5.13;;
20324;SDS011;10320;49.482;11.256;2024-02-26T08:59:01;6.93;;;4.93;;
20324;SDS011;10320;49.482;11.256;2024-02-26T09:01:29;6.83;;;5.13;;
20324;SDS011;10320;49.482;11.256;2024-02-26T09:03:55;5.70;;;4.93;;
20324;SDS011;10320;49.482;11.256;2024-02-26T09:06:21;6.40;;;4.93;;
20324;SDS011;10320;49.482;11.256;2024-02-26T09:08:47;6.37;;;4.30;;
20324;SDS011;10320;49.482;11.256;2024-02-26T09:11:13;6.07;;;4.80;;
20324;SDS011;10320;49.482;11.256;2024-02-26T09:13:39;6.30;;;5.23;;
20324;SDS011;10320;49.482;11.256;2024-02-26T09:16:05;5.93;;;4.83;;
20324;SDS011;10320;49.482;11.256;2024-02-26T09:18:31;5.53;;;4.80;;
20324;SDS011;10320;49.482;11.256;2024-02-26T09:20:57;6.33;;;4.60;;
20324;SDS011;10320;49.482;11.256;2024-02-26T09:23:23;5.00;;;4.50;;
20324;SDS011;10320;49.482;11.256;2024-02-26T09:25:50;5.20;;;4.40;;
20324;SDS011;10320;49.482;11.256;2024-02-26T09:28:16;5.00;;;4.30;;
20324;SDS011;10320;49.482;11.256;2024-02-26T09:30:42;6.97;;;5.00;;
20324;SDS011;10320;49.482;11.256;2024-02-26T09:33:08;5.57;;;4.40;;
20324;SDS011;10320;49.482;11.256;2024-02-26T09:35:34;5.70;;;4.23;;
20324;SDS011;10320;49.482;11.256;2024-02-26T09:38:00;4.97;;;4.03;;
20324;SDS011;10320;49.482;11.256;2024-02-26T09:40:26;5.30;;;3.70;;
20324;SDS011;10320;49.482;11.256;2024-02-26T09:42:53;4.10;;;3.67;;
20324;SDS011;10320;49.482;11.256;2024-02-26T09:45:22;5.17;;;4.40;;
20324;SDS011;10320;49.482;11.256;2024-02-26T09:47:50;4.17;;;3.50;;
20324;SDS011;10320;49.482;11.256;2024-02-26T09:50:17;6.30;;;4.23;;
20324;SDS011;10320;49.482;11.256;2024-02-26T09:52:47;4.53;;;4.10;;
20324;SDS011;10320;49.482;11.256;2024-02-26T09:55:13;5.10;;;3.87;;
20324;SDS011;10320;49.482;11.256;2024-02-26T09:57:41;4.20;;;3.70;;
20324;SDS011;10320;49.482;11.256;2024-02-26T10:00:08;4.30;;;3.87;;
20324;SDS011;10320;49.482;11.256;2024-02-26T10:02:36;4.07;;;3.60;;
20324;SDS011;10320;49.482;11.256;2024-02-26T10:05:03;4.70;;;4.10;;
20324;SDS011;10320;49.482;11.256;2024-02-26T10:07:30;6.23;;;3.90;;
20324;SDS011;10320;49.482;11.256;2024-02-26T10:09:57;4.50;;;4.00;;
20324;SDS011;10320;49.482;11.256;2024-02-26T10:12:23;4.40;;;3.90;;
20324;SDS011;10320;49.482;11.256;2024-02-26T10:14:51;4.23;;;3.80;;
20324;SDS011;10320;49.482;11.256;2024-02-26T10:17:17;4.37;;;3.80;;
20324;SDS011;10320;49.482;11.256;2024-02-26T10:19:44;4.13;;;3.63;;
20324;SDS011;10320;49.482;11.256;2024-02-26T10:22:10;4.90;;;3.93;;
20324;SDS011;10320;49.482;11.256;2024-02-26T10:24:36;4.10;;;3.70;;
20324;SDS011;10320;49.482;11.256;2024-02-26T10:27:03;4.47;;;3.67;;
20324;SDS011;10320;49.482;11.256;2024-02-26T10:29:29;4.87;;;4.10;;
20324;SDS011;10320;49.482;11.256;2024-02-26T10:31:55;5.00;;;3.67;;
20324;SDS011;10320;49.482;11.256;2024-02-26T10:34:21;3.90;;;3.30;;
20324;SDS011;10320;49.482;11.256;2024-02-26T10:36:48;5.23;;;3.90;;
20324;SDS011;10320;49.482;11.256;2024-02-26T10:39:15;4.10;;;3.50;;
20324;SDS011;10320;49.482;11.256;2024-02-26T10:41:41;3.97;;;3.57;;
20324;SDS011;10320;49.482;11.256;2024-02-26T10:44:11;4.33;;;3.70;;
20324;SDS011;10320;49.482;11.256;2024-02-26T10:46:37;5.43;;;3.80;;
20324;SDS011;10320;49.482;11.256;2024-02-26T10:49:04;5.07;;;3.83;;
20324;SDS011;10320;49.482;11.256;2024-02-26T10:51:31;4.87;;;4.10;;
20324;SDS011;10320;49.482;11.256;2024-02-26T10:54:02;4.17;;;3.43;;
20324;SDS011;10320;49.482;11.256;2024-02-26T10:56:29;4.70;;;3.60;;
20324;SDS011;10320;49.482;11.256;2024-02-26T10:58:57;4.73;;;3.93;;
20324;SDS011;10320;49.482;11.256;2024-02-26T11:01:24;5.47;;;4.97;;
20324;SDS011;10320;49.482;11.256;2024-02-26T11:03:50;4.23;;;3.83;;
20324;SDS011;10320;49.482;11.256;2024-02-26T11:06:17;5.33;;;4.00;;
20324;SDS011;10320;49.482;11.256;2024-02-26T11:08:44;4.20;;;3.80;;
20324;SDS011;10320;49.482;11.256;2024-02-26T11:11:10;3.93;;;3.23;;
20324;SDS011;10320;49.482;11.256;2024-02-26T11:13:40;4.10;;;3.70;;
20324;SDS011;10320;49.482;11.256;2024-02-26T11:16:09;4.10;;;3.60;;
20324;SDS011;10320;49.482;11.256;2024-02-26T11:18:35;4.77;;;3.17;;
20324;SDS011;10320;49.482;11.256;2024-02-26T11:21:02;4.00;;;3.20;;
20324;SDS011;10320;49.482;11.256;2024-02-26T11:23:28;3.80;;;3.00;;
20324;SDS011;10320;49.482;11.256;2024-02-26T11:25:55;4.27;;;3.20;;
20324;SDS011;10320;49.482;11.256;2024-02-26T11:28:22;4.37;;;3.50;;
20324;SDS011;10320;49.482;11.256;2024-02-26T11:30:49;3.57;;;3.20;;
20324;SDS011;10320;49.482;11.256;2024-02-26T11:33:15;3.77;;;3.23;;
20324;SDS011;10320;49.482;11.256;2024-02-26T11:35:41;4.23;;;3.30;;
20324;SDS011;10320;49.482;11.256;2024-02-26T11:38:07;3.90;;;3.03;;
20324;SDS011;10320;49.482;11.256;2024-02-26T11:40:37;3.80;;;3.30;;
20324;SDS011;10320;49.482;11.256;2024-02-26T11:43:08;3.63;;;3.10;;
20324;SDS011;10320;49.482;11.256;2024-02-26T11:48:03;3.03;;;2.73;;
20324;SDS011;10320;49.482;11.256;2024-02-26T11:50:34;3.23;;;2.93;;
20324;SDS011;10320;49.482;11.256;2024-02-26T11:55:45;3.27;;;2.73;;
20324;SDS011;10320;49.482;11.256;2024-02-26T11:58:11;3.93;;;2.87;;
20324;SDS011;10320;49.482;11.256;2024-02-26T12:00:39;3.83;;;3.43;;
20324;SDS011;10320;49.482;11.256;2024-02-26T12:03:05;3.10;;;2.80;;
20324;SDS011;10320;49.482;11.256;2024-02-26T12:05:33;3.50;;;2.67;;
20324;SDS011;10320;49.482;11.256;2024-02-26T12:08:05;3.17;;;2.53;;
20324;SDS011;10320;49.482;11.256;2024-02-26T12:10:37;2.87;;;2.67;;
20324;SDS011;10320;49.482;11.256;2024-02-26T12:13:14;3.40;;;2.90;;
20324;SDS011;10320;49.482;11.256;2024-02-26T12:15:44;3.37;;;2.77;;
20324;SDS011;10320;49.482;11.256;2024-02-26T12:18:12;2.97;;;2.60;;
20324;SDS011;10320;49.482;11.256;2024-02-26T12:20:41;3.50;;;2.60;;
20324;SDS011;10320;49.482;11.256;2024-02-26T12:23:09;3.00;;;2.60;;
20324;SDS011;10320;49.482;11.256;2024-02-26T12:25:36;2.47;;;2.17;;
20324;SDS011;10320;49.482;11.256;2024-02-26T12:28:02;2.63;;;2.30;;
20324;SDS011;10320;49.482;11.256;2024-02-26T12:30:28;2.90;;;2.37;;
20324;SDS011;10320;49.482;11.256;2024-02-26T12:32:56;2.50;;;2.30;;
20324;SDS011;10320;49.482;11.256;2024-02-26T12:35:23;2.63;;;2.13;;
20324;SDS011;10320;49.482;11.256;2024-02-26T12:37:49;2.20;;;2.00;;
20324;SDS011;10320;49.482;11.256;2024-02-26T12:40:16;2.33;;;2.10;;
20324;SDS011;10320;49.482;11.256;2024-02-26T12:42:42;2.70;;;2.30;;
20324;SDS011;10320;49.482;11.256;2024-02-26T12:45:09;2.10;;;1.70;;
20324;SDS011;10320;49.482;11.256;2024-02-26T12:47:39;2.93;;;2.23;;
20324;SDS011;10320;49.482;11.256;2024-02-26T12:50:05;1.90;;;1.80;;
20324;SDS011;10320;49.482;11.256;2024-02-26T12:52:36;2.17;;;1.73;;
20324;SDS011;10320;49.482;11.256;2024-02-26T12:55:02;2.87;;;1.57;;
20324;SDS011;10320;49.482;11.256;2024-02-26T12:57:30;2.80;;;1.80;;
20324;SDS011;10320;49.482;11.256;2024-02-26T12:59:57;2.83;;;1.93;;
20324;SDS011;10320;49.482;11.256;2024-02-26T13:02:24;2.20;;;1.80;;
20324;SDS011;10320;49.482;11.256;2024-02-26T13:04:50;2.27;;;1.77;;
20324;SDS011;10320;49.482;11.256;2024-02-26T13:07:16;3.13;;;1.70;;
20324;SDS011;10320;49.482;11.256;2024-02-26T13:09:42;1.70;;;1.60;;
20324;SDS011;10320;49.482;11.256;2024-02-26T13:12:08;2.23;;;1.80;;
20324;SDS011;10320;49.482;11.256;2024-02-26T13:14:34;1.67;;;1.57;;
20324;SDS011;10320;49.482;11.256;2024-02-26T13:17:01;1.50;;;1.40;;
20324;SDS011;10320;49.482;11.256;2024-02-26T13:19:27;1.93;;;1.60;;
20324;SDS011;10320;49.482;11.256;2024-02-26T13:21:53;2.03;;;1.67;;
20324;SDS011;10320;49.482;11.256;2024-02-26T13:24:20;1.70;;;1.60;;
20324;SDS011;10320;49.482;11.256;2024-02-26T13:26:47;1.93;;;1.73;;
20324;SDS011;10320;49.482;11.256;2024-02-26T13:29:16;2.80;;;2.10;;
20324;SDS011;10320;49.482;11.256;2024-02-26T13:31:42;2.20;;;1.93;;
20324;SDS011;10320;49.482;11.256;2024-02-26T13:34:08;2.10;;;1.90;;
20324;SDS011;10320;49.482;11.256;2024-02-26T13:36:34;2.90;;;2.00;;
20324;SDS011;10320;49.482;11.256;2024-02-26T13:39:00;1.67;;;1.57;;
20324;SDS011;10320;49.482;11.256;2024-02-26T13:41:29;2.20;;;2.00;;
20324;SDS011;10320;49.482;11.256;2024-02-26T13:43:55;2.97;;;2.00;;
20324;SDS011;10320;49.482;11.256;2024-02-26T13:46:22;3.10;;;2.00;;
20324;SDS011;10320;49.482;11.256;2024-02-26T13:48:49;2.60;;;2.10;;
20324;SDS011;10320;49.482;11.256;2024-02-26T13:51:15;2.10;;;1.80;;
20324;SDS011;10320;49.482;11.256;2024-02-26T13:53:42;3.80;;;2.00;;
20324;SDS011;10320;49.482;11.256;2024-02-26T13:56:08;2.37;;;1.90;;
20324;SDS011;10320;49.482;11.256;2024-02-26T13:58:35;2.77;;;2.20;;
20324;SDS011;10320;49.482;11.256;2024-02-26T14:01:02;2.83;;;2.40;;
20324;SDS011;10320;49.482;11.256;2024-02-26T14:03:28;2.73;;;2.07;;
20324;SDS011;10320;49.482;11.256;2024-02-26T14:05:54;1.93;;;1.77;;
20324;SDS011;10320;49.482;11.256;2024-02-26T14:08:21;2.30;;;2.10;;
20324;SDS011;10320;49.482;11.256;2024-02-26T14:10:48;2.70;;;2.20;;
20324;SDS011;10320;49.482;11.256;2024-02-26T14:13:14;2.93;;;2.33;;
20324;SDS011;10320;49.482;11.256;2024-02-26T14:15:40;2.30;;;2.10;;
20324;SDS011;10320;49.482;11.256;2024-02-26T14:18:06;2.33;;;1.93;;
20324;SDS011;10320;49.482;11.256;2024-02-26T14:20:33;2.33;;;2.10;;
20324;SDS011;10320;49.482;11.256;2024-02-26T14:23:00;2.60;;;2.40;;
20324;SDS011;10320;49.482;11.256;2024-02-26T14:25:26;2.80;;;2.30;;
20324;SDS011;10320;49.482;11.256;2024-02-26T14:27:51;2.70;;;2.17;;
20324;SDS011;10320;49.482;11.256;2024-02-26T14:30:18;2.43;;;2.20;;
20324;SDS011;10320;49.482;11.256;2024-02-26T14:32:44;2.40;;;2.20;;
20324;SDS011;10320;49.482;11.256;2024-02-26T14:35:11;2.73;;;2.40;;